sensor_id;sensor_type;location;lat;lon;timestamp;temperature;humidity
51557;DHT22;38766;53.194;5.532;2022-07-23T00:01:15;15.70;99.90
51557;DHT22;38766;53.194;5.532;2022-07-23T00:03:41;15.70;99.90
51557;DHT22;38766;53.194;5.532;2022-07-23T00:06:07;15.70;99.90
51557;DHT22;38766;53.194;5.532;2022-07-23T00:08:32;15.70;99.90
51557;DHT22;38766;53.194;5.532;2022-07-23T00:10:58;15.70;99.90
51557;DHT22;38766;53.194;5.532;2022-07-23T00:13:23;15.70;99.90
51557;DHT22;38766;53.194;5.532;2022-07-23T00:15:49;15.70;99.90
51557;DHT22;38766;53.194;5.532;2022-07-23T00:18:14;15.60;99.90
51557;DHT22;38766;53.194;5.532;2022-07-23T00:20:40;15.60;99.90
51557;DHT22;38766;53.194;5.532;2022-07-23T00:23:06;15.60;99.90
51557;DHT22;38766;53.194;5.532;2022-07-23T00:25:31;15.60;99.90
51557;DHT22;38766;53.194;5.532;2022-07-23T00:27:58;15.60;99.90
51557;DHT22;38766;53.194;5.532;2022-07-23T00:30:24;15.60;99.90
51557;DHT22;38766;53.194;5.532;2022-07-23T00:32:55;15.50;99.90
51557;DHT22;38766;53.194;5.532;2022-07-23T00:35:23;15.60;99.90
51557;DHT22;38766;53.194;5.532;2022-07-23T00:37:50;15.50;99.90
51557;DHT22;38766;53.194;5.532;2022-07-23T00:40:16;15.50;99.90
51557;DHT22;38766;53.194;5.532;2022-07-23T00:42:42;15.50;99.90
51557;DHT22;38766;53.194;5.532;2022-07-23T00:45:08;15.50;99.90
51557;DHT22;38766;53.194;5.532;2022-07-23T00:47:34;15.40;99.90
51557;DHT22;38766;53.194;5.532;2022-07-23T00:50:00;15.50;99.90
51557;DHT22;38766;53.194;5.532;2022-07-23T00:52:26;15.40;99.90
51557;DHT22;38766;53.194;5.532;2022-07-23T00:54:52;15.40;99.90
51557;DHT22;38766;53.194;5.532;2022-07-23T00:57:18;15.40;99.90
51557;DHT22;38766;53.194;5.532;2022-07-23T00:59:44;15.40;99.90
51557;DHT22;38766;53.194;5.532;2022-07-23T01:02:10;15.40;99.90
51557;DHT22;38766;53.194;5.532;2022-07-23T01:04:36;15.40;99.90
51557;DHT22;38766;53.194;5.532;2022-07-23T01:07:02;15.30;99.90
51557;DHT22;38766;53.194;5.532;2022-07-23T01:09:27;15.30;99.90
51557;DHT22;38766;53.194;5.532;2022-07-23T01:11:55;15.30;99.90
51557;DHT22;38766;53.194;5.532;2022-07-23T01:14:20;15.30;99.90
51557;DHT22;38766;53.194;5.532;2022-07-23T01:16:48;15.30;99.90
51557;DHT22;38766;53.194;5.532;2022-07-23T01:19:15;15.30;99.90
51557;DHT22;38766;53.194;5.532;2022-07-23T01:21:44;15.30;99.90
51557;DHT22;38766;53.194;5.532;2022-07-23T01:24:10;15.30;99.90
51557;DHT22;38766;53.194;5.532;2022-07-23T01:26:37;15.30;99.90
51557;DHT22;38766;53.194;5.532;2022-07-23T01:29:03;15.20;99.90
51557;DHT22;38766;53.194;5.532;2022-07-23T01:31:29;15.30;99.90
51557;DHT22;38766;53.194;5.532;2022-07-23T01:33:55;15.20;99.90
51557;DHT22;38766;53.194;5.532;2022-07-23T01:36:21;15.20;99.90
51557;DHT22;38766;53.194;5.532;2022-07-23T01:38:47;15.20;99.90
51557;DHT22;38766;53.194;5.532;2022-07-23T01:41:13;15.20;99.90
51557;DHT22;38766;53.194;5.532;2022-07-23T01:43:39;15.20;99.90
51557;DHT22;38766;53.194;5.532;2022-07-23T01:46:04;15.20;99.90
51557;DHT22;38766;53.194;5.532;2022-07-23T01:48:30;15.20;99.90
51557;DHT22;38766;53.194;5.532;2022-07-23T01:50:56;15.20;99.90
51557;DHT22;38766;53.194;5.532;2022-07-23T01:53:21;15.20;99.90
51557;DHT22;38766;53.194;5.532;2022-07-23T01:55:47;15.20;99.90
51557;DHT22;38766;53.194;5.532;2022-07-23T01:58:12;15.20;99.90
51557;DHT22;38766;53.194;5.532;2022-07-23T02:00:38;15.20;99.90
51557;DHT22;38766;53.194;5.532;2022-07-23T02:03:04;15.10;99.90
51557;DHT22;38766;53.194;5.532;2022-07-23T02:05:29;15.00;99.90
51557;DHT22;38766;53.194;5.532;2022-07-23T02:07:55;15.10;99.90
51557;DHT22;38766;53.194;5.532;2022-07-23T02:10:21;15.10;99.90
51557;DHT22;38766;53.194;5.532;2022-07-23T02:12:47;15.10;99.90
51557;DHT22;38766;53.194;5.532;2022-07-23T02:15:13;15.00;99.90
51557;DHT22;38766;53.194;5.532;2022-07-23T02:17:39;15.10;99.90
51557;DHT22;38766;53.194;5.532;2022-07-23T02:20:06;15.00;99.90
51557;DHT22;38766;53.194;5.532;2022-07-23T02:22:32;15.00;99.90
51557;DHT22;38766;53.194;5.532;2022-07-23T02:24:58;15.10;99.90
51557;DHT22;38766;53.194;5.532;2022-07-23T02:27:23;15.00;99.90
51557;DHT22;38766;53.194;5.532;2022-07-23T02:29:49;15.00;99.90
51557;DHT22;38766;53.194;5.532;2022-07-23T02:32:15;15.00;99.90
51557;DHT22;38766;53.194;5.532;2022-07-23T02:34:41;14.90;99.90
51557;DHT22;38766;53.194;5.532;2022-07-23T02:37:06;15.00;99.90
51557;DHT22;38766;53.194;5.532;2022-07-23T02:39:34;15.00;99.90
51557;DHT22;38766;53.194;5.532;2022-07-23T02:42:00;14.90;99.90
51557;DHT22;38766;53.194;5.532;2022-07-23T02:44:26;14.90;99.90
51557;DHT22;38766;53.194;5.532;2022-07-23T02:46:52;14.90;99.90
51557;DHT22;38766;53.194;5.532;2022-07-23T02:49:17;14.80;99.90
51557;DHT22;38766;53.194;5.532;2022-07-23T02:51:43;14.90;99.90
51557;DHT22;38766;53.194;5.532;2022-07-23T02:54:09;14.90;99.90
51557;DHT22;38766;53.194;5.532;2022-07-23T02:56:34;14.90;99.90
51557;DHT22;38766;53.194;5.532;2022-07-23T02:59:00;14.90;99.90
51557;DHT22;38766;53.194;5.532;2022-07-23T03:01:25;14.80;99.90
51557;DHT22;38766;53.194;5.532;2022-07-23T03:03:51;14.90;99.90
51557;DHT22;38766;53.194;5.532;2022-07-23T03:06:17;14.80;99.90
51557;DHT22;38766;53.194;5.532;2022-07-23T03:08:42;14.80;99.90
51557;DHT22;38766;53.194;5.532;2022-07-23T03:11:08;14.80;99.90
51557;DHT22;38766;53.194;5.532;2022-07-23T03:13:39;14.80;99.90
51557;DHT22;38766;53.194;5.532;2022-07-23T03:16:05;14.80;99.90
51557;DHT22;38766;53.194;5.532;2022-07-23T03:18:31;14.80;99.90
51557;DHT22;38766;53.194;5.532;2022-07-23T03:20:57;14.80;99.90
51557;DHT22;38766;53.194;5.532;2022-07-23T03:23:22;14.70;99.90
51557;DHT22;38766;53.194;5.532;2022-07-23T03:25:48;14.70;99.90
51557;DHT22;38766;53.194;5.532;2022-07-23T03:28:14;14.70;99.90
51557;DHT22;38766;53.194;5.532;2022-07-23T03:30:42;14.70;99.90
51557;DHT22;38766;53.194;5.532;2022-07-23T03:33:07;14.70;99.90
51557;DHT22;38766;53.194;5.532;2022-07-23T03:35:33;14.70;99.90
51557;DHT22;38766;53.194;5.532;2022-07-23T03:37:59;14.70;99.90
51557;DHT22;38766;53.194;5.532;2022-07-23T03:40:24;14.70;99.90
51557;DHT22;38766;53.194;5.532;2022-07-23T03:42:50;14.70;99.90
51557;DHT22;38766;53.194;5.532;2022-07-23T03:45:16;14.70;99.90
51557;DHT22;38766;53.194;5.532;2022-07-23T03:47:41;14.70;99.90
51557;DHT22;38766;53.194;5.532;2022-07-23T03:50:08;14.70;99.90
51557;DHT22;38766;53.194;5.532;2022-07-23T03:52:34;14.70;99.90
51557;DHT22;38766;53.194;5.532;2022-07-23T03:55:01;14.70;99.90
51557;DHT22;38766;53.194;5.532;2022-07-23T03:57:27;14.70;99.90
51557;DHT22;38766;53.194;5.532;2022-07-23T03:59:52;14.70;99.90
51557;DHT22;38766;53.194;5.532;2022-07-23T04:02:18;14.70;99.90
51557;DHT22;38766;53.194;5.532;2022-07-23T04:04:43;14.70;99.90
51557;DHT22;38766;53.194;5.532;2022-07-23T04:07:09;14.60;99.90
51557;DHT22;38766;53.194;5.532;2022-07-23T04:09:34;14.60;99.90
51557;DHT22;38766;53.194;5.532;2022-07-23T04:12:00;14.60;99.90
51557;DHT22;38766;53.194;5.532;2022-07-23T04:14:26;14.60;99.90
51557;DHT22;38766;53.194;5.532;2022-07-23T04:16:52;14.60;99.90
51557;DHT22;38766;53.194;5.532;2022-07-23T04:19:17;14.70;99.90
51557;DHT22;38766;53.194;5.532;2022-07-23T04:21:43;14.70;99.90
51557;DHT22;38766;53.194;5.532;2022-07-23T04:24:08;14.70;99.90
51557;DHT22;38766;53.194;5.532;2022-07-23T04:26:34;14.60;99.90
51557;DHT22;38766;53.194;5.532;2022-07-23T04:29:00;14.60;99.90
51557;DHT22;38766;53.194;5.532;2022-07-23T04:31:25;14.70;99.90
51557;DHT22;38766;53.194;5.532;2022-07-23T04:33:51;14.60;99.90
51557;DHT22;38766;53.194;5.532;2022-07-23T04:36:16;14.70;99.90
51557;DHT22;38766;53.194;5.532;2022-07-23T04:38:42;14.70;99.90
51557;DHT22;38766;53.194;5.532;2022-07-23T04:41:08;14.60;99.90
51557;DHT22;38766;53.194;5.532;2022-07-23T04:43:33;14.70;99.90
51557;DHT22;38766;53.194;5.532;2022-07-23T04:45:59;14.70;99.90
51557;DHT22;38766;53.194;5.532;2022-07-23T04:48:24;14.70;99.90
51557;DHT22;38766;53.194;5.532;2022-07-23T04:50:50;14.70;99.90
51557;DHT22;38766;53.194;5.532;2022-07-23T04:53:16;14.80;99.90
51557;DHT22;38766;53.194;5.532;2022-07-23T04:55:43;14.80;99.90
51557;DHT22;38766;53.194;5.532;2022-07-23T04:58:08;14.80;99.90
51557;DHT22;38766;53.194;5.532;2022-07-23T05:00:34;14.80;99.90
51557;DHT22;38766;53.194;5.532;2022-07-23T05:03:00;14.90;99.90
51557;DHT22;38766;53.194;5.532;2022-07-23T05:05:25;14.90;99.90
51557;DHT22;38766;53.194;5.532;2022-07-23T05:07:51;14.90;99.90
51557;DHT22;38766;53.194;5.532;2022-07-23T05:10:17;15.00;99.90
51557;DHT22;38766;53.194;5.532;2022-07-23T05:12:42;15.00;99.90
51557;DHT22;38766;53.194;5.532;2022-07-23T05:15:08;15.00;99.90
51557;DHT22;38766;53.194;5.532;2022-07-23T05:17:34;15.10;99.90
51557;DHT22;38766;53.194;5.532;2022-07-23T05:19:59;15.10;99.90
51557;DHT22;38766;53.194;5.532;2022-07-23T05:22:25;15.10;99.90
51557;DHT22;38766;53.194;5.532;2022-07-23T05:24:50;15.20;99.90
51557;DHT22;38766;53.194;5.532;2022-07-23T05:27:16;15.10;99.90
51557;DHT22;38766;53.194;5.532;2022-07-23T05:29:42;15.20;99.90
51557;DHT22;38766;53.194;5.532;2022-07-23T05:32:07;15.20;99.90
51557;DHT22;38766;53.194;5.532;2022-07-23T05:34:33;15.20;99.90
51557;DHT22;38766;53.194;5.532;2022-07-23T05:36:58;15.20;99.90
51557;DHT22;38766;53.194;5.532;2022-07-23T05:39:24;15.20;99.90
51557;DHT22;38766;53.194;5.532;2022-07-23T05:41:49;15.30;99.90
51557;DHT22;38766;53.194;5.532;2022-07-23T05:44:15;15.30;99.90
51557;DHT22;38766;53.194;5.532;2022-07-23T05:46:40;15.40;99.90
51557;DHT22;38766;53.194;5.532;2022-07-23T05:49:06;15.40;99.90
51557;DHT22;38766;53.194;5.532;2022-07-23T05:51:32;15.40;99.90
51557;DHT22;38766;53.194;5.532;2022-07-23T05:53:57;15.50;99.90
51557;DHT22;38766;53.194;5.532;2022-07-23T05:56:23;15.50;99.90
51557;DHT22;38766;53.194;5.532;2022-07-23T05:58:48;15.50;99.90
51557;DHT22;38766;53.194;5.532;2022-07-23T06:01:14;15.60;99.90
51557;DHT22;38766;53.194;5.532;2022-07-23T06:03:39;15.60;99.90
51557;DHT22;38766;53.194;5.532;2022-07-23T06:06:06;15.70;99.90
51557;DHT22;38766;53.194;5.532;2022-07-23T06:08:31;15.70;99.90
51557;DHT22;38766;53.194;5.532;2022-07-23T06:10:57;15.70;99.90
51557;DHT22;38766;53.194;5.532;2022-07-23T06:13:23;15.80;99.90
51557;DHT22;38766;53.194;5.532;2022-07-23T06:15:48;15.90;99.90
51557;DHT22;38766;53.194;5.532;2022-07-23T06:18:14;16.00;99.90
51557;DHT22;38766;53.194;5.532;2022-07-23T06:20:40;16.00;99.90
51557;DHT22;38766;53.194;5.532;2022-07-23T06:23:05;16.10;99.90
51557;DHT22;38766;53.194;5.532;2022-07-23T06:25:31;16.20;99.90
51557;DHT22;38766;53.194;5.532;2022-07-23T06:27:56;16.30;99.90
51557;DHT22;38766;53.194;5.532;2022-07-23T06:30:22;16.40;99.90
51557;DHT22;38766;53.194;5.532;2022-07-23T06:32:48;16.50;99.90
51557;DHT22;38766;53.194;5.532;2022-07-23T06:35:15;16.50;99.90
51557;DHT22;38766;53.194;5.532;2022-07-23T06:37:40;16.60;99.90
51557;DHT22;38766;53.194;5.532;2022-07-23T06:40:06;16.70;99.90
51557;DHT22;38766;53.194;5.532;2022-07-23T06:42:32;16.70;99.90
51557;DHT22;38766;53.194;5.532;2022-07-23T06:44:58;16.80;99.90
51557;DHT22;38766;53.194;5.532;2022-07-23T06:47:23;16.80;99.90
51557;DHT22;38766;53.194;5.532;2022-07-23T06:49:49;16.90;99.90
51557;DHT22;38766;53.194;5.532;2022-07-23T06:52:15;17.00;99.90
51557;DHT22;38766;53.194;5.532;2022-07-23T06:54:40;17.00;99.90
51557;DHT22;38766;53.194;5.532;2022-07-23T06:57:06;17.00;99.90
51557;DHT22;38766;53.194;5.532;2022-07-23T06:59:32;17.10;99.90
51557;DHT22;38766;53.194;5.532;2022-07-23T07:01:58;17.10;99.90
51557;DHT22;38766;53.194;5.532;2022-07-23T07:04:24;17.10;99.90
51557;DHT22;38766;53.194;5.532;2022-07-23T07:06:49;17.10;99.90
51557;DHT22;38766;53.194;5.532;2022-07-23T07:09:15;17.20;99.90
51557;DHT22;38766;53.194;5.532;2022-07-23T07:11:41;17.20;99.90
51557;DHT22;38766;53.194;5.532;2022-07-23T07:14:06;17.20;99.90
51557;DHT22;38766;53.194;5.532;2022-07-23T07:16:32;17.20;99.90
51557;DHT22;38766;53.194;5.532;2022-07-23T07:18:57;17.20;99.90
51557;DHT22;38766;53.194;5.532;2022-07-23T07:21:23;17.20;99.90
51557;DHT22;38766;53.194;5.532;2022-07-23T07:23:49;17.30;99.90
51557;DHT22;38766;53.194;5.532;2022-07-23T07:26:14;17.30;99.90
51557;DHT22;38766;53.194;5.532;2022-07-23T07:28:40;17.30;99.90
51557;DHT22;38766;53.194;5.532;2022-07-23T07:31:05;17.30;99.90
51557;DHT22;38766;53.194;5.532;2022-07-23T07:33:31;17.30;99.90
51557;DHT22;38766;53.194;5.532;2022-07-23T07:35:57;17.40;99.90
51557;DHT22;38766;53.194;5.532;2022-07-23T07:38:22;17.40;99.90
51557;DHT22;38766;53.194;5.532;2022-07-23T07:40:48;17.40;99.90
51557;DHT22;38766;53.194;5.532;2022-07-23T07:43:14;17.40;99.90
51557;DHT22;38766;53.194;5.532;2022-07-23T07:45:39;17.40;99.90
51557;DHT22;38766;53.194;5.532;2022-07-23T07:48:05;17.40;99.90
51557;DHT22;38766;53.194;5.532;2022-07-23T07:50:31;17.40;99.90
51557;DHT22;38766;53.194;5.532;2022-07-23T07:52:56;17.40;99.90
51557;DHT22;38766;53.194;5.532;2022-07-23T07:55:22;17.30;99.90
51557;DHT22;38766;53.194;5.532;2022-07-23T07:57:48;17.40;99.90
51557;DHT22;38766;53.194;5.532;2022-07-23T08:00:13;17.40;99.90
51557;DHT22;38766;53.194;5.532;2022-07-23T08:02:50;17.40;99.90
51557;DHT22;38766;53.194;5.532;2022-07-23T08:05:20;17.40;99.90
51557;DHT22;38766;53.194;5.532;2022-07-23T08:07:46;17.40;99.90
51557;DHT22;38766;53.194;5.532;2022-07-23T08:10:12;17.40;99.90
51557;DHT22;38766;53.194;5.532;2022-07-23T08:12:43;17.40;99.90
51557;DHT22;38766;53.194;5.532;2022-07-23T08:15:11;17.40;99.90
51557;DHT22;38766;53.194;5.532;2022-07-23T08:17:37;17.40;99.90
51557;DHT22;38766;53.194;5.532;2022-07-23T08:20:04;17.40;99.90
51557;DHT22;38766;53.194;5.532;2022-07-23T08:25:16;17.50;99.90
51557;DHT22;38766;53.194;5.532;2022-07-23T08:27:44;17.50;99.90
51557;DHT22;38766;53.194;5.532;2022-07-23T08:30:10;17.50;99.90
51557;DHT22;38766;53.194;5.532;2022-07-23T08:32:56;17.50;99.90
51557;DHT22;38766;53.194;5.532;2022-07-23T08:35:34;17.50;99.90
51557;DHT22;38766;53.194;5.532;2022-07-23T08:38:04;17.50;99.90
51557;DHT22;38766;53.194;5.532;2022-07-23T08:40:32;17.60;99.90
51557;DHT22;38766;53.194;5.532;2022-07-23T08:42:58;17.70;99.90
51557;DHT22;38766;53.194;5.532;2022-07-23T08:45:26;17.90;99.90
51557;DHT22;38766;53.194;5.532;2022-07-23T08:47:57;18.00;99.90
51557;DHT22;38766;53.194;5.532;2022-07-23T08:50:26;18.10;99.90
51557;DHT22;38766;53.194;5.532;2022-07-23T08:52:53;18.20;99.90
51557;DHT22;38766;53.194;5.532;2022-07-23T08:55:20;18.20;99.90
51557;DHT22;38766;53.194;5.532;2022-07-23T08:57:49;18.30;99.90
51557;DHT22;38766;53.194;5.532;2022-07-23T09:00:16;18.40;99.90
51557;DHT22;38766;53.194;5.532;2022-07-23T09:02:43;18.40;99.90
51557;DHT22;38766;53.194;5.532;2022-07-23T09:05:10;18.40;99.90
51557;DHT22;38766;53.194;5.532;2022-07-23T09:07:38;18.50;99.90
51557;DHT22;38766;53.194;5.532;2022-07-23T09:10:23;18.60;99.90
51557;DHT22;38766;53.194;5.532;2022-07-23T09:12:49;18.90;99.90
51557;DHT22;38766;53.194;5.532;2022-07-23T09:15:14;19.20;99.90
51557;DHT22;38766;53.194;5.532;2022-07-23T09:17:42;19.40;99.90
51557;DHT22;38766;53.194;5.532;2022-07-23T09:20:13;19.60;99.90
51557;DHT22;38766;53.194;5.532;2022-07-23T09:22:43;19.70;99.90
51557;DHT22;38766;53.194;5.532;2022-07-23T09:25:11;19.80;99.90
51557;DHT22;38766;53.194;5.532;2022-07-23T09:30:15;19.90;99.90
51557;DHT22;38766;53.194;5.532;2022-07-23T09:32:41;20.10;99.90
51557;DHT22;38766;53.194;5.532;2022-07-23T09:35:07;20.30;99.90
51557;DHT22;38766;53.194;5.532;2022-07-23T09:37:33;20.40;99.90
51557;DHT22;38766;53.194;5.532;2022-07-23T09:40:07;20.40;99.90
51557;DHT22;38766;53.194;5.532;2022-07-23T09:42:34;20.40;99.90
51557;DHT22;38766;53.194;5.532;2022-07-23T09:45:00;20.30;99.90
51557;DHT22;38766;53.194;5.532;2022-07-23T09:47:31;20.50;99.90
51557;DHT22;38766;53.194;5.532;2022-07-23T09:50:02;20.60;99.90
51557;DHT22;38766;53.194;5.532;2022-07-23T09:52:33;20.60;99.90
51557;DHT22;38766;53.194;5.532;2022-07-23T09:55:01;20.70;99.90
51557;DHT22;38766;53.194;5.532;2022-07-23T09:57:27;20.80;99.90
51557;DHT22;38766;53.194;5.532;2022-07-23T09:59:56;20.90;99.90
51557;DHT22;38766;53.194;5.532;2022-07-23T10:02:24;21.00;99.90
51557;DHT22;38766;53.194;5.532;2022-07-23T10:04:53;21.10;99.90
51557;DHT22;38766;53.194;5.532;2022-07-23T10:07:21;21.20;99.90
51557;DHT22;38766;53.194;5.532;2022-07-23T10:09:50;21.40;99.90
51557;DHT22;38766;53.194;5.532;2022-07-23T10:12:19;21.40;99.90
51557;DHT22;38766;53.194;5.532;2022-07-23T10:14:50;21.50;99.90
51557;DHT22;38766;53.194;5.532;2022-07-23T10:17:17;21.50;99.90
51557;DHT22;38766;53.194;5.532;2022-07-23T10:19:43;21.50;99.90
51557;DHT22;38766;53.194;5.532;2022-07-23T10:22:22;21.60;99.90
51557;DHT22;38766;53.194;5.532;2022-07-23T10:27:31;21.70;99.90
51557;DHT22;38766;53.194;5.532;2022-07-23T10:30:06;21.80;99.90
51557;DHT22;38766;53.194;5.532;2022-07-23T10:32:53;21.80;99.90
51557;DHT22;38766;53.194;5.532;2022-07-23T10:35:53;21.90;99.90
51557;DHT22;38766;53.194;5.532;2022-07-23T10:38:28;21.90;99.90
51557;DHT22;38766;53.194;5.532;2022-07-23T10:40:58;22.00;99.90
51557;DHT22;38766;53.194;5.532;2022-07-23T10:43:24;22.00;99.90
51557;DHT22;38766;53.194;5.532;2022-07-23T10:45:50;22.20;99.90
51557;DHT22;38766;53.194;5.532;2022-07-23T10:48:18;22.20;99.90
51557;DHT22;38766;53.194;5.532;2022-07-23T10:59:06;22.30;99.90
51557;DHT22;38766;53.194;5.532;2022-07-23T11:01:36;22.30;99.90
51557;DHT22;38766;53.194;5.532;2022-07-23T11:04:03;22.20;99.90
51557;DHT22;38766;53.194;5.532;2022-07-23T11:15:11;22.50;99.40
51557;DHT22;38766;53.194;5.532;2022-07-23T11:22:46;22.70;98.90
51557;DHT22;38766;53.194;5.532;2022-07-23T11:27:47;22.60;98.80
51557;DHT22;38766;53.194;5.532;2022-07-23T11:35:33;22.80;99.00
51557;DHT22;38766;53.194;5.532;2022-07-23T11:38:14;22.80;98.80
51557;DHT22;38766;53.194;5.532;2022-07-23T11:40:41;22.80;98.70
51557;DHT22;38766;53.194;5.532;2022-07-23T11:43:08;22.70;98.60
51557;DHT22;38766;53.194;5.532;2022-07-23T11:45:37;22.60;98.50
51557;DHT22;38766;53.194;5.532;2022-07-23T11:48:06;22.60;98.70
51557;DHT22;38766;53.194;5.532;2022-07-23T11:50:32;22.60;98.80
51557;DHT22;38766;53.194;5.532;2022-07-23T11:52:58;22.70;98.70
51557;DHT22;38766;53.194;5.532;2022-07-23T11:55:24;22.80;98.40
51557;DHT22;38766;53.194;5.532;2022-07-23T11:57:52;22.90;98.20
51557;DHT22;38766;53.194;5.532;2022-07-23T12:00:23;22.90;98.30
51557;DHT22;38766;53.194;5.532;2022-07-23T12:02:52;22.80;98.20
51557;DHT22;38766;53.194;5.532;2022-07-23T12:05:21;22.70;98.20
51557;DHT22;38766;53.194;5.532;2022-07-23T12:07:49;22.70;98.10
51557;DHT22;38766;53.194;5.532;2022-07-23T12:12:49;22.70;98.30
51557;DHT22;38766;53.194;5.532;2022-07-23T12:15:19;22.70;98.00
51557;DHT22;38766;53.194;5.532;2022-07-23T12:17:46;22.80;98.10
51557;DHT22;38766;53.194;5.532;2022-07-23T12:20:14;22.80;98.00
51557;DHT22;38766;53.194;5.532;2022-07-23T12:22:45;22.80;97.90
51557;DHT22;38766;53.194;5.532;2022-07-23T12:25:20;22.80;97.90
51557;DHT22;38766;53.194;5.532;2022-07-23T12:28:07;22.90;97.30
51557;DHT22;38766;53.194;5.532;2022-07-23T12:30:43;22.90;97.10
51557;DHT22;38766;53.194;5.532;2022-07-23T12:33:11;23.00;97.20
51557;DHT22;38766;53.194;5.532;2022-07-23T12:38:16;23.20;97.40
51557;DHT22;38766;53.194;5.532;2022-07-23T12:43:21;23.20;97.10
51557;DHT22;38766;53.194;5.532;2022-07-23T12:48:23;23.30;96.70
51557;DHT22;38766;53.194;5.532;2022-07-23T12:51:06;23.30;96.90
51557;DHT22;38766;53.194;5.532;2022-07-23T12:53:41;23.40;96.70
51557;DHT22;38766;53.194;5.532;2022-07-23T12:56:16;23.50;96.60
51557;DHT22;38766;53.194;5.532;2022-07-23T13:01:28;23.50;97.10
51557;DHT22;38766;53.194;5.532;2022-07-23T13:04:09;23.60;96.70
51557;DHT22;38766;53.194;5.532;2022-07-23T13:06:43;23.50;96.20
51557;DHT22;38766;53.194;5.532;2022-07-23T13:09:14;23.50;96.50
51557;DHT22;38766;53.194;5.532;2022-07-23T13:11:40;23.40;96.50
51557;DHT22;38766;53.194;5.532;2022-07-23T13:14:06;23.50;96.50
51557;DHT22;38766;53.194;5.532;2022-07-23T13:16:33;23.50;96.30
51557;DHT22;38766;53.194;5.532;2022-07-23T13:18:59;23.50;96.20
51557;DHT22;38766;53.194;5.532;2022-07-23T13:21:26;23.50;96.20
51557;DHT22;38766;53.194;5.532;2022-07-23T13:23:54;23.60;96.40
51557;DHT22;38766;53.194;5.532;2022-07-23T13:26:20;23.60;96.50
51557;DHT22;38766;53.194;5.532;2022-07-23T13:28:45;23.60;96.10
51557;DHT22;38766;53.194;5.532;2022-07-23T13:31:11;23.60;95.80
51557;DHT22;38766;53.194;5.532;2022-07-23T13:33:36;23.60;96.10
51557;DHT22;38766;53.194;5.532;2022-07-23T13:36:03;23.60;96.30
51557;DHT22;38766;53.194;5.532;2022-07-23T13:38:29;23.50;95.90
51557;DHT22;38766;53.194;5.532;2022-07-23T13:40:55;23.50;96.00
51557;DHT22;38766;53.194;5.532;2022-07-23T13:43:23;23.50;96.10
51557;DHT22;38766;53.194;5.532;2022-07-23T13:45:50;23.50;96.10
51557;DHT22;38766;53.194;5.532;2022-07-23T13:48:17;23.50;96.10
51557;DHT22;38766;53.194;5.532;2022-07-23T13:50:43;23.60;96.20
51557;DHT22;38766;53.194;5.532;2022-07-23T13:53:12;23.70;96.10
51557;DHT22;38766;53.194;5.532;2022-07-23T13:55:39;23.60;95.80
51557;DHT22;38766;53.194;5.532;2022-07-23T13:58:05;23.70;95.90
51557;DHT22;38766;53.194;5.532;2022-07-23T14:00:32;23.70;95.70
51557;DHT22;38766;53.194;5.532;2022-07-23T14:02:59;23.60;96.00
51557;DHT22;38766;53.194;5.532;2022-07-23T14:05:24;23.70;95.90
51557;DHT22;38766;53.194;5.532;2022-07-23T14:07:50;23.80;95.60
51557;DHT22;38766;53.194;5.532;2022-07-23T14:10:18;23.90;95.10
51557;DHT22;38766;53.194;5.532;2022-07-23T14:12:45;23.90;94.90
51557;DHT22;38766;53.194;5.532;2022-07-23T14:15:11;23.90;94.70
51557;DHT22;38766;53.194;5.532;2022-07-23T14:17:38;24.00;94.60
51557;DHT22;38766;53.194;5.532;2022-07-23T14:20:05;24.00;94.10
51557;DHT22;38766;53.194;5.532;2022-07-23T14:22:31;24.10;93.80
51557;DHT22;38766;53.194;5.532;2022-07-23T14:24:56;24.00;93.70
51557;DHT22;38766;53.194;5.532;2022-07-23T14:27:26;24.00;93.50
51557;DHT22;38766;53.194;5.532;2022-07-23T14:29:52;24.00;93.30
51557;DHT22;38766;53.194;5.532;2022-07-23T14:32:18;23.90;93.10
51557;DHT22;38766;53.194;5.532;2022-07-23T14:34:44;24.00;93.00
51557;DHT22;38766;53.194;5.532;2022-07-23T14:37:10;24.00;92.80
51557;DHT22;38766;53.194;5.532;2022-07-23T14:39:40;24.00;92.10
51557;DHT22;38766;53.194;5.532;2022-07-23T14:42:06;23.90;91.80
51557;DHT22;38766;53.194;5.532;2022-07-23T14:44:33;23.90;91.90
51557;DHT22;38766;53.194;5.532;2022-07-23T14:46:59;23.90;92.00
51557;DHT22;38766;53.194;5.532;2022-07-23T14:49:26;24.00;92.20
51557;DHT22;38766;53.194;5.532;2022-07-23T14:51:51;24.00;92.10
51557;DHT22;38766;53.194;5.532;2022-07-23T14:54:17;24.00;92.00
51557;DHT22;38766;53.194;5.532;2022-07-23T14:56:43;24.00;92.00
51557;DHT22;38766;53.194;5.532;2022-07-23T14:59:09;24.00;91.40
51557;DHT22;38766;53.194;5.532;2022-07-23T15:01:35;23.90;91.20
51557;DHT22;38766;53.194;5.532;2022-07-23T15:04:02;23.70;91.20
51557;DHT22;38766;53.194;5.532;2022-07-23T15:06:27;23.80;91.20
51557;DHT22;38766;53.194;5.532;2022-07-23T15:08:53;23.80;91.10
51557;DHT22;38766;53.194;5.532;2022-07-23T15:11:19;23.80;91.20
51557;DHT22;38766;53.194;5.532;2022-07-23T15:13:45;23.80;90.90
51557;DHT22;38766;53.194;5.532;2022-07-23T15:16:11;23.90;90.80
51557;DHT22;38766;53.194;5.532;2022-07-23T15:18:37;23.90;90.70
51557;DHT22;38766;53.194;5.532;2022-07-23T15:21:03;23.90;90.00
51557;DHT22;38766;53.194;5.532;2022-07-23T15:23:29;23.90;89.40
51557;DHT22;38766;53.194;5.532;2022-07-23T15:25:56;23.90;88.60
51557;DHT22;38766;53.194;5.532;2022-07-23T15:28:22;23.90;88.00
51557;DHT22;38766;53.194;5.532;2022-07-23T15:30:49;23.90;87.50
51557;DHT22;38766;53.194;5.532;2022-07-23T15:33:15;23.90;87.00
51557;DHT22;38766;53.194;5.532;2022-07-23T15:35:41;23.90;86.80
51557;DHT22;38766;53.194;5.532;2022-07-23T15:38:06;23.90;87.00
51557;DHT22;38766;53.194;5.532;2022-07-23T15:40:32;23.90;86.40
51557;DHT22;38766;53.194;5.532;2022-07-23T15:42:57;23.80;86.20
51557;DHT22;38766;53.194;5.532;2022-07-23T15:45:23;23.70;86.70
51557;DHT22;38766;53.194;5.532;2022-07-23T15:47:49;23.70;87.20
51557;DHT22;38766;53.194;5.532;2022-07-23T15:50:15;23.80;87.30
51557;DHT22;38766;53.194;5.532;2022-07-23T15:52:41;23.80;87.50
51557;DHT22;38766;53.194;5.532;2022-07-23T15:55:07;23.80;86.50
51557;DHT22;38766;53.194;5.532;2022-07-23T15:57:33;23.80;86.50
51557;DHT22;38766;53.194;5.532;2022-07-23T15:59:58;23.90;86.50
51557;DHT22;38766;53.194;5.532;2022-07-23T16:02:25;23.80;85.90
51557;DHT22;38766;53.194;5.532;2022-07-23T16:04:51;23.80;85.20
51557;DHT22;38766;53.194;5.532;2022-07-23T16:07:19;23.80;85.50
51557;DHT22;38766;53.194;5.532;2022-07-23T16:09:45;23.80;85.10
51557;DHT22;38766;53.194;5.532;2022-07-23T16:12:10;23.70;85.20
51557;DHT22;38766;53.194;5.532;2022-07-23T16:14:36;23.70;85.20
51557;DHT22;38766;53.194;5.532;2022-07-23T16:17:02;23.70;85.20
51557;DHT22;38766;53.194;5.532;2022-07-23T16:19:28;23.80;85.20